sensor_id;sensor_type;location;lat;lon;timestamp;pressure;altitude;pressure_sealevel;temperature;humidity
71195;BME280;58908;51.426;7.714;2023-01-24T00:01:01;101859.09;;;1.26;100.00
71195;BME280;58908;51.426;7.714;2023-01-24T00:03:28;101859.03;;;1.24;100.00
71195;BME280;58908;51.426;7.714;2023-01-24T00:05:54;101857.31;;;1.23;100.00
71195;BME280;58908;51.426;7.714;2023-01-24T00:08:21;101852.03;;;1.19;100.00
71195;BME280;58908;51.426;7.714;2023-01-24T00:10:48;101852.06;;;1.22;100.00
71195;BME280;58908;51.426;7.714;2023-01-24T00:13:16;101855.56;;;1.22;100.00
71195;BME280;58908;51.426;7.714;2023-01-24T00:15:42;101859.03;;;1.24;100.00
71195;BME280;58908;51.426;7.714;2023-01-24T00:18:08;101857.28;;;1.22;100.00
71195;BME280;58908;51.426;7.714;2023-01-24T00:20:35;101860.75;;;1.22;100.00
71195;BME280;58908;51.426;7.714;2023-01-24T00:23:01;101859.94;;;1.25;100.00
71195;BME280;58908;51.426;7.714;2023-01-24T00:25:27;101858.25;;;1.30;100.00
71195;BME280;58908;51.426;7.714;2023-01-24T00:27:53;101854.75;;;1.26;100.00
71195;BME280;58908;51.426;7.714;2023-01-24T00:30:21;101846.03;;;1.21;100.00
71195;BME280;58908;51.426;7.714;2023-01-24T00:32:47;101851.22;;;1.21;100.00
71195;BME280;58908;51.426;7.714;2023-01-24T00:35:13;101854.75;;;1.25;100.00
71195;BME280;58908;51.426;7.714;2023-01-24T00:37:39;101853.84;;;1.24;100.00
71195;BME280;58908;51.426;7.714;2023-01-24T00:40:06;101855.59;;;1.24;100.00
71195;BME280;58908;51.426;7.714;2023-01-24T00:42:33;101864.28;;;1.26;100.00
71195;BME280;58908;51.426;7.714;2023-01-24T00:44:59;101855.56;;;1.22;100.00
71195;BME280;58908;51.426;7.714;2023-01-24T00:47:27;101854.66;;;1.22;100.00
71195;BME280;58908;51.426;7.714;2023-01-24T00:49:53;101864.19;;;1.18;100.00
71195;BME280;58908;51.426;7.714;2023-01-24T00:52:19;101851.28;;;1.26;100.00
71195;BME280;58908;51.426;7.714;2023-01-24T00:54:45;101853.00;;;1.25;100.00
71195;BME280;58908;51.426;7.714;2023-01-24T00:57:12;101852.19;;;1.28;100.00
71195;BME280;58908;51.426;7.714;2023-01-24T00:59:39;101846.94;;;1.26;100.00
71195;BME280;58908;51.426;7.714;2023-01-24T01:02:06;101840.94;;;1.30;100.00
71195;BME280;58908;51.426;7.714;2023-01-24T01:04:34;101851.28;;;1.27;100.00
71195;BME280;58908;51.426;7.714;2023-01-24T01:07:00;101853.91;;;1.29;100.00
71195;BME280;58908;51.426;7.714;2023-01-24T01:09:26;101847.00;;;1.31;100.00
71195;BME280;58908;51.426;7.714;2023-01-24T01:11:53;101856.63;;;1.35;100.00
71195;BME280;58908;51.426;7.714;2023-01-24T01:14:19;101860.88;;;1.33;100.00
71195;BME280;58908;51.426;7.714;2023-01-24T01:16:45;101854.00;;;1.35;100.00
71195;BME280;58908;51.426;7.714;2023-01-24T01:19:11;101854.81;;;1.31;100.00
71195;BME280;58908;51.426;7.714;2023-01-24T01:21:39;101861.69;;;1.26;100.00
71195;BME280;58908;51.426;7.714;2023-01-24T01:24:09;101863.41;;;1.25;100.00
71195;BME280;58908;51.426;7.714;2023-01-24T01:26:35;101860.84;;;1.28;100.00
71195;BME280;58908;51.426;7.714;2023-01-24T01:29:01;101858.25;;;1.30;100.00
71195;BME280;58908;51.426;7.714;2023-01-24T01:31:28;101860.78;;;1.25;100.00
71195;BME280;58908;51.426;7.714;2023-01-24T01:33:54;101857.38;;;1.28;100.00
71195;BME280;58908;51.426;7.714;2023-01-24T01:36:20;101860.00;;;1.31;100.00
71195;BME280;58908;51.426;7.714;2023-01-24T01:38:48;101867.72;;;1.26;100.00
71195;BME280;58908;51.426;7.714;2023-01-24T01:41:14;101865.06;;;1.20;100.00
71195;BME280;58908;51.426;7.714;2023-01-24T01:43:40;101865.03;;;1.19;100.00
71195;BME280;58908;51.426;7.714;2023-01-24T01:46:28;101871.97;;;1.18;100.00
71195;BME280;58908;51.426;7.714;2023-01-24T01:48:55;101876.22;;;1.13;100.00
71195;BME280;58908;51.426;7.714;2023-01-24T01:51:24;101871.03;;;1.12;100.00
71195;BME280;58908;51.426;7.714;2023-01-24T01:53:53;101867.53;;;1.11;100.00
71195;BME280;58908;51.426;7.714;2023-01-24T01:56:21;101866.72;;;1.14;100.00
71195;BME280;58908;51.426;7.714;2023-01-24T01:58:50;101864.97;;;1.13;100.00
71195;BME280;58908;51.426;7.714;2023-01-24T02:01:16;101868.41;;;1.12;100.00
71195;BME280;58908;51.426;7.714;2023-01-24T02:03:43;101873.56;;;1.09;100.00
71195;BME280;58908;51.426;7.714;2023-01-24T02:06:32;101871.03;;;1.12;100.00
71195;BME280;58908;51.426;7.714;2023-01-24T02:09:02;101866.66;;;1.11;100.00
71195;BME280;58908;51.426;7.714;2023-01-24T02:11:30;101871.06;;;1.16;100.00
71195;BME280;58908;51.426;7.714;2023-01-24T02:14:06;101867.63;;;1.17;100.00
71195;BME280;58908;51.426;7.714;2023-01-24T02:16:50;101858.06;;;1.15;100.00
71195;BME280;58908;51.426;7.714;2023-01-24T02:19:20;101863.22;;;1.12;100.00
71195;BME280;58908;51.426;7.714;2023-01-24T02:21:49;101863.22;;;1.13;100.00
71195;BME280;58908;51.426;7.714;2023-01-24T02:24:23;101866.69;;;1.12;100.00
71195;BME280;58908;51.426;7.714;2023-01-24T02:26:52;101866.66;;;1.11;100.00
71195;BME280;58908;51.426;7.714;2023-01-24T02:29:19;101860.63;;;1.12;100.00
71195;BME280;58908;51.426;7.714;2023-01-24T02:31:52;101864.03;;;1.09;100.00
71195;BME280;58908;51.426;7.714;2023-01-24T02:34:19;101865.81;;;1.12;100.00
71195;BME280;58908;51.426;7.714;2023-01-24T02:36:45;101861.63;;;1.21;100.00
71195;BME280;58908;51.426;7.714;2023-01-24T02:39:16;101858.13;;;1.21;100.00
71195;BME280;58908;51.426;7.714;2023-01-24T02:41:45;101858.13;;;1.21;100.00
71195;BME280;58908;51.426;7.714;2023-01-24T02:44:16;101852.91;;;1.18;100.00
71195;BME280;58908;51.426;7.714;2023-01-24T02:46:45;101854.63;;;1.19;100.00
71195;BME280;58908;51.426;7.714;2023-01-24T02:49:11;101843.34;;;1.17;100.00
71195;BME280;58908;51.426;7.714;2023-01-24T02:51:38;101844.25;;;1.19;100.00
71195;BME280;58908;51.426;7.714;2023-01-24T02:54:22;101840.75;;;1.17;100.00
71195;BME280;58908;51.426;7.714;2023-01-24T02:56:48;101846.78;;;1.14;100.00
71195;BME280;58908;51.426;7.714;2023-01-24T02:59:33;101840.66;;;1.11;100.00
71195;BME280;58908;51.426;7.714;2023-01-24T03:02:00;101842.44;;;1.12;100.00
71195;BME280;58908;51.426;7.714;2023-01-24T03:04:26;101840.66;;;1.11;100.00
71195;BME280;58908;51.426;7.714;2023-01-24T03:06:52;101836.38;;;1.13;100.00
71195;BME280;58908;51.426;7.714;2023-01-24T03:09:18;101846.78;;;1.13;100.00
71195;BME280;58908;51.426;7.714;2023-01-24T03:11:55;101832.00;;;1.10;100.00
71195;BME280;58908;51.426;7.714;2023-01-24T03:14:40;101841.56;;;1.13;100.00
71195;BME280;58908;51.426;7.714;2023-01-24T03:17:24;101831.19;;;1.13;100.00
71195;BME280;58908;51.426;7.714;2023-01-24T03:20:08;101832.03;;;1.12;100.00
71195;BME280;58908;51.426;7.714;2023-01-24T03:22:52;101835.53;;;1.15;100.00
71195;BME280;58908;51.426;7.714;2023-01-24T03:25:36;101839.81;;;1.10;100.00
71195;BME280;58908;51.426;7.714;2023-01-24T03:28:20;101845.00;;;1.10;100.00
71195;BME280;58908;51.426;7.714;2023-01-24T03:31:06;101838.06;;;1.11;100.00
71195;BME280;58908;51.426;7.714;2023-01-24T03:33:50;101845.84;;;1.09;100.00
71195;BME280;58908;51.426;7.714;2023-01-24T03:36:34;101843.22;;;1.08;100.00
71195;BME280;58908;51.426;7.714;2023-01-24T03:39:00;101845.78;;;1.05;100.00
71195;BME280;58908;51.426;7.714;2023-01-24T03:41:44;101830.16;;;1.03;100.00
71195;BME280;58908;51.426;7.714;2023-01-24T03:44:10;101835.31;;;1.00;100.00
71195;BME280;58908;51.426;7.714;2023-01-24T03:46:38;101837.97;;;1.03;100.00
71195;BME280;58908;51.426;7.714;2023-01-24T03:49:05;101837.06;;;1.01;100.00
71195;BME280;58908;51.426;7.714;2023-01-24T03:51:31;101843.13;;;1.00;100.00
71195;BME280;58908;51.426;7.714;2023-01-24T03:54:14;101846.56;;;0.99;100.00
71195;BME280;58908;51.426;7.714;2023-01-24T03:56:41;101840.53;;;1.00;100.00
71195;BME280;58908;51.426;7.714;2023-01-24T03:59:07;101837.06;;;1.01;100.00
71195;BME280;58908;51.426;7.714;2023-01-24T04:01:33;101840.50;;;0.99;100.00
71195;BME280;58908;51.426;7.714;2023-01-24T04:04:01;101837.00;;;0.95;100.00
71195;BME280;58908;51.426;7.714;2023-01-24T04:06:27;101832.63;;;0.94;100.00
71195;BME280;58908;51.426;7.714;2023-01-24T04:08:53;101830.94;;;0.96;100.00
71195;BME280;58908;51.426;7.714;2023-01-24T04:11:20;101827.44;;;0.94;100.00
71195;BME280;58908;51.426;7.714;2023-01-24T04:13:46;101826.56;;;0.94;100.00
71195;BME280;58908;51.426;7.714;2023-01-24T04:16:12;101822.22;;;0.93;100.00
71195;BME280;58908;51.426;7.714;2023-01-24T04:18:39;101823.03;;;0.89;100.00
71195;BME280;58908;51.426;7.714;2023-01-24T04:21:07;101816.09;;;0.88;100.00
71195;BME280;58908;51.426;7.714;2023-01-24T04:23:33;101829.06;;;0.88;100.00
71195;BME280;58908;51.426;7.714;2023-01-24T04:25:59;101824.72;;;0.87;100.00
71195;BME280;58908;51.426;7.714;2023-01-24T04:28:26;101824.72;;;0.85;100.00
71195;BME280;58908;51.426;7.714;2023-01-24T04:30:55;101819.47;;;0.82;100.00
71195;BME280;58908;51.426;7.714;2023-01-24T04:33:22;101821.19;;;0.82;100.00
71195;BME280;58908;51.426;7.714;2023-01-24T04:35:48;101820.31;;;0.81;100.00
71195;BME280;58908;51.426;7.714;2023-01-24T04:38:16;101824.66;;;0.81;100.00
71195;BME280;58908;51.426;7.714;2023-01-24T04:40:42;101820.31;;;0.81;100.00
71195;BME280;58908;51.426;7.714;2023-01-24T04:43:08;101827.25;;;0.82;100.00
71195;BME280;58908;51.426;7.714;2023-01-24T04:45:34;101829.03;;;0.83;100.00
71195;BME280;58908;51.426;7.714;2023-01-24T04:48:01;101828.13;;;0.83;100.00
71195;BME280;58908;51.426;7.714;2023-01-24T04:50:27;101826.41;;;0.82;100.00
71195;BME280;58908;51.426;7.714;2023-01-24T04:52:53;101826.41;;;0.82;100.00
71195;BME280;58908;51.426;7.714;2023-01-24T04:55:21;101832.44;;;0.81;100.00
71195;BME280;58908;51.426;7.714;2023-01-24T04:57:47;101834.19;;;0.82;100.00
71195;BME280;58908;51.426;7.714;2023-01-24T05:00:14;101831.56;;;0.80;100.00
71195;BME280;58908;51.426;7.714;2023-01-24T05:02:40;101839.34;;;0.79;100.00
71195;BME280;58908;51.426;7.714;2023-01-24T05:05:06;101840.19;;;0.78;100.00
71195;BME280;58908;51.426;7.714;2023-01-24T05:07:33;101848.00;;;0.79;100.00
71195;BME280;58908;51.426;7.714;2023-01-24T05:09:59;101841.03;;;0.75;100.00
71195;BME280;58908;51.426;7.714;2023-01-24T05:12:27;101836.75;;;0.79;100.00
71195;BME280;58908;51.426;7.714;2023-01-24T05:14:53;101839.34;;;0.80;100.00
71195;BME280;58908;51.426;7.714;2023-01-24T05:17:19;101837.59;;;0.78;100.00
71195;BME280;58908;51.426;7.714;2023-01-24T05:19:45;101843.63;;;0.77;100.00
71195;BME280;58908;51.426;7.714;2023-01-24T05:22:12;101845.41;;;0.78;100.00
71195;BME280;58908;51.426;7.714;2023-01-24T05:24:38;101845.34;;;0.76;100.00
71195;BME280;58908;51.426;7.714;2023-01-24T05:27:04;101846.22;;;0.75;100.00
71195;BME280;58908;51.426;7.714;2023-01-24T05:29:32;101847.06;;;0.76;100.00
71195;BME280;58908;51.426;7.714;2023-01-24T05:31:58;101848.81;;;0.75;100.00
71195;BME280;58908;51.426;7.714;2023-01-24T05:34:24;101846.22;;;0.75;100.00
71195;BME280;58908;51.426;7.714;2023-01-24T05:36:51;101848.81;;;0.75;100.00
71195;BME280;58908;51.426;7.714;2023-01-24T05:39:17;101848.81;;;0.75;100.00
71195;BME280;58908;51.426;7.714;2023-01-24T05:41:43;101852.28;;;0.77;100.00
71195;BME280;58908;51.426;7.714;2023-01-24T05:44:09;101852.25;;;0.76;100.00
71195;BME280;58908;51.426;7.714;2023-01-24T05:46:37;101850.50;;;0.73;100.00
71195;BME280;58908;51.426;7.714;2023-01-24T05:49:03;101849.66;;;0.76;100.00
71195;BME280;58908;51.426;7.714;2023-01-24T05:51:29;101851.41;;;0.77;100.00
71195;BME280;58908;51.426;7.714;2023-01-24T05:53:56;101861.78;;;0.77;100.00
71195;BME280;58908;51.426;7.714;2023-01-24T05:56:22;101866.16;;;0.78;100.00
71195;BME280;58908;51.426;7.714;2023-01-24T05:58:48;101863.50;;;0.73;100.00
71195;BME280;58908;51.426;7.714;2023-01-24T06:01:15;101859.97;;;0.71;100.00
71195;BME280;58908;51.426;7.714;2023-01-24T06:03:44;101867.78;;;0.71;100.00
71195;BME280;58908;51.426;7.714;2023-01-24T06:06:11;101871.31;;;0.76;100.00
71195;BME280;58908;51.426;7.714;2023-01-24T06:08:37;101866.94;;;0.74;100.00
71195;BME280;58908;51.426;7.714;2023-01-24T06:11:04;101865.25;;;0.74;100.00
71195;BME280;58908;51.426;7.714;2023-01-24T06:13:31;101869.56;;;0.74;100.00
71195;BME280;58908;51.426;7.714;2023-01-24T06:16:01;101871.25;;;0.72;100.00
71195;BME280;58908;51.426;7.714;2023-01-24T06:18:28;101880.75;;;0.71;100.00
71195;BME280;58908;51.426;7.714;2023-01-24T06:20:56;101879.91;;;0.71;100.00
71195;BME280;58908;51.426;7.714;2023-01-24T06:23:22;101884.25;;;0.72;100.00
71195;BME280;58908;51.426;7.714;2023-01-24T06:25:49;101884.25;;;0.72;100.00
71195;BME280;58908;51.426;7.714;2023-01-24T06:28:16;101884.28;;;0.73;100.00
71195;BME280;58908;51.426;7.714;2023-01-24T06:30:42;101894.66;;;0.73;100.00
71195;BME280;58908;51.426;7.714;2023-01-24T06:33:21;101894.59;;;0.70;100.00
71195;BME280;58908;51.426;7.714;2023-01-24T06:35:58;101892.00;;;0.70;100.00
71195;BME280;58908;51.426;7.714;2023-01-24T06:38:30;101894.53;;;0.67;100.00
71195;BME280;58908;51.426;7.714;2023-01-24T06:40:57;101902.28;;;0.66;100.00
71195;BME280;58908;51.426;7.714;2023-01-24T06:43:25;101907.56;;;0.69;100.00
71195;BME280;58908;51.426;7.714;2023-01-24T06:45:51;101910.16;;;0.69;100.00
71195;BME280;58908;51.426;7.714;2023-01-24T06:48:17;101907.53;;;0.67;100.00
71195;BME280;58908;51.426;7.714;2023-01-24T06:50:44;101910.16;;;0.69;100.00
71195;BME280;58908;51.426;7.714;2023-01-24T06:53:11;101920.59;;;0.72;100.00
71195;BME280;58908;51.426;7.714;2023-01-24T06:55:39;101917.91;;;0.67;100.00
71195;BME280;58908;51.426;7.714;2023-01-24T06:58:05;101924.00;;;0.68;100.00
71195;BME280;58908;51.426;7.714;2023-01-24T07:00:31;101921.38;;;0.66;100.00
71195;BME280;58908;51.426;7.714;2023-01-24T07:02:58;101926.56;;;0.66;100.00
71195;BME280;58908;51.426;7.714;2023-01-24T07:05:25;101930.00;;;0.65;100.00
71195;BME280;58908;51.426;7.714;2023-01-24T07:07:51;101930.03;;;0.67;100.00
71195;BME280;58908;51.426;7.714;2023-01-24T07:10:18;101932.59;;;0.65;100.00
71195;BME280;58908;51.426;7.714;2023-01-24T07:12:45;101936.94;;;0.66;100.00
71195;BME280;58908;51.426;7.714;2023-01-24T07:15:11;101931.72;;;0.63;100.00
71195;BME280;58908;51.426;7.714;2023-01-24T07:17:37;101937.75;;;0.64;100.00
71195;BME280;58908;51.426;7.714;2023-01-24T07:20:04;101942.94;;;0.64;100.00
71195;BME280;58908;51.426;7.714;2023-01-24T07:22:31;101943.81;;;0.63;100.00
71195;BME280;58908;51.426;7.714;2023-01-24T07:24:57;101937.75;;;0.62;100.00
71195;BME280;58908;51.426;7.714;2023-01-24T07:27:25;101940.34;;;0.64;100.00
71195;BME280;58908;51.426;7.714;2023-01-24T07:29:51;101945.59;;;0.65;100.00
71195;BME280;58908;51.426;7.714;2023-01-24T07:32:18;101936.06;;;0.64;100.00
71195;BME280;58908;51.426;7.714;2023-01-24T07:34:44;101940.41;;;0.65;100.00
71195;BME280;58908;51.426;7.714;2023-01-24T07:37:10;101930.84;;;0.66;100.00
71195;BME280;58908;51.426;7.714;2023-01-24T07:39:37;101939.59;;;0.69;100.00
71195;BME280;58908;51.426;7.714;2023-01-24T07:42:03;101944.81;;;0.71;100.00
71195;BME280;58908;51.426;7.714;2023-01-24T07:44:30;101946.47;;;0.67;100.00
71195;BME280;58908;51.426;7.714;2023-01-24T07:47:00;101951.72;;;0.70;100.00
71195;BME280;58908;51.426;7.714;2023-01-24T07:49:26;101949.97;;;0.69;100.00
71195;BME280;58908;51.426;7.714;2023-01-24T07:51:52;101951.72;;;0.70;100.00
71195;BME280;58908;51.426;7.714;2023-01-24T07:54:18;101958.69;;;0.73;100.00
71195;BME280;58908;51.426;7.714;2023-01-24T07:56:45;101961.22;;;0.68;100.00
71195;BME280;58908;51.426;7.714;2023-01-24T07:59:11;101962.97;;;0.69;100.00
71195;BME280;58908;51.426;7.714;2023-01-24T08:01:38;101966.41;;;0.68;100.00
71195;BME280;58908;51.426;7.714;2023-01-24T08:04:05;101957.84;;;0.74;100.00
71195;BME280;58908;51.426;7.714;2023-01-24T08:06:31;101963.00;;;0.71;100.00
71195;BME280;58908;51.426;7.714;2023-01-24T08:08:58;101967.38;;;0.73;100.00
71195;BME280;58908;51.426;7.714;2023-01-24T08:11:24;101966.50;;;0.73;100.00
71195;BME280;58908;51.426;7.714;2023-01-24T08:13:50;101975.97;;;0.71;100.00
71195;BME280;58908;51.426;7.714;2023-01-24T08:16:16;101967.34;;;0.72;100.00
71195;BME280;58908;51.426;7.714;2023-01-24T08:18:44;101977.78;;;0.75;100.00
71195;BME280;58908;51.426;7.714;2023-01-24T08:21:10;101989.88;;;0.73;100.00
71195;BME280;58908;51.426;7.714;2023-01-24T08:23:37;101979.50;;;0.74;100.00
71195;BME280;58908;51.426;7.714;2023-01-24T08:26:03;101986.38;;;0.71;100.00
71195;BME280;58908;51.426;7.714;2023-01-24T08:28:30;101979.56;;;0.77;100.00
71195;BME280;58908;51.426;7.714;2023-01-24T08:30:58;101985.66;;;0.79;100.00
71195;BME280;58908;51.426;7.714;2023-01-24T08:33:24;101980.44;;;0.79;100.00
71195;BME280;58908;51.426;7.714;2023-01-24T08:35:51;101984.91;;;0.86;100.00
71195;BME280;58908;51.426;7.714;2023-01-24T08:38:18;101978.78;;;0.83;100.00
71195;BME280;58908;51.426;7.714;2023-01-24T08:40:44;101988.28;;;0.81;100.00
71195;BME280;58908;51.426;7.714;2023-01-24T08:43:10;101988.25;;;0.78;100.00
71195;BME280;58908;51.426;7.714;2023-01-24T08:45:37;101990.88;;;0.81;100.00
71195;BME280;58908;51.426;7.714;2023-01-24T08:48:04;101990.94;;;0.84;100.00
71195;BME280;58908;51.426;7.714;2023-01-24T08:50:30;101994.59;;;0.95;100.00
71195;BME280;58908;51.426;7.714;2023-01-24T08:52:57;101996.25;;;0.90;100.00
71195;BME280;58908;51.426;7.714;2023-01-24T08:55:24;101997.13;;;0.92;100.00
71195;BME280;58908;51.426;7.714;2023-01-24T08:57:50;101993.72;;;0.96;100.00
71195;BME280;58908;51.426;7.714;2023-01-24T09:00:17;101993.66;;;0.91;100.00
71195;BME280;58908;51.426;7.714;2023-01-24T09:02:43;101997.94;;;0.89;100.00
71195;BME280;58908;51.426;7.714;2023-01-24T09:05:09;102001.44;;;0.91;100.00
71195;BME280;58908;51.426;7.714;2023-01-24T09:07:36;102001.34;;;0.87;100.00
71195;BME280;58908;51.426;7.714;2023-01-24T09:10:03;102003.16;;;0.89;100.00
71195;BME280;58908;51.426;7.714;2023-01-24T09:12:30;101996.31;;;0.96;100.00
71195;BME280;58908;51.426;7.714;2023-01-24T09:14:56;101998.19;;;1.03;100.00
71195;BME280;58908;51.426;7.714;2023-01-24T09:17:23;102000.78;;;1.03;100.00
71195;BME280;58908;51.426;7.714;2023-01-24T09:19:49;102012.03;;;1.03;100.00
71195;BME280;58908;51.426;7.714;2023-01-24T09:22:15;102005.94;;;1.01;100.00
71195;BME280;58908;51.426;7.714;2023-01-24T09:24:41;102008.66;;;1.09;100.00
71195;BME280;58908;51.426;7.714;2023-01-24T09:27:10;102009.31;;;0.96;100.00
71195;BME280;58908;51.426;7.714;2023-01-24T09:29:36;102017.97;;;0.95;100.00
71195;BME280;58908;51.426;7.714;2023-01-24T09:32:03;102017.06;;;0.93;100.00
71195;BME280;58908;51.426;7.714;2023-01-24T09:34:29;102024.13;;;1.01;100.00
71195;BME280;58908;51.426;7.714;2023-01-24T09:36:55;102019.84;;;1.03;100.00
71195;BME280;58908;51.426;7.714;2023-01-24T09:39:21;102022.63;;;1.15;100.00
71195;BME280;58908;51.426;7.714;2023-01-24T09:41:50;102030.44;;;1.14;100.00
71195;BME280;58908;51.426;7.714;2023-01-24T09:44:22;102033.19;;;1.24;100.00
71195;BME280;58908;51.426;7.714;2023-01-24T09:46:52;102030.41;;;1.12;100.00
71195;BME280;58908;51.426;7.714;2023-01-24T09:49:21;102025.88;;;1.02;100.00
71195;BME280;58908;51.426;7.714;2023-01-24T09:51:49;102027.66;;;1.05;100.00
71195;BME280;58908;51.426;7.714;2023-01-24T09:54:17;102033.59;;;0.98;100.00
71195;BME280;58908;51.426;7.714;2023-01-24T09:56:46;102042.28;;;1.00;100.00
71195;BME280;58908;51.426;7.714;2023-01-24T09:59:14;102040.75;;;1.11;100.00
71195;BME280;58908;51.426;7.714;2023-01-24T10:01:43;102034.69;;;1.10;100.00
71195;BME280;58908;51.426;7.714;2023-01-24T10:04:13;102033.72;;;1.04;100.00
71195;BME280;58908;51.426;7.714;2023-01-24T10:06:40;102032.13;;;1.13;100.00
71195;BME280;58908;51.426;7.714;2023-01-24T10:09:09;102038.03;;;1.02;100.00
71195;BME280;58908;51.426;7.714;2023-01-24T10:11:41;102044.06;;;1.01;100.00
71195;BME280;58908;51.426;7.714;2023-01-24T10:14:23;102037.38;;;1.16;100.00
71195;BME280;58908;51.426;7.714;2023-01-24T10:16:56;102025.06;;;1.05;100.00
71195;BME280;58908;51.426;7.714;2023-01-24T10:19:45;102026.78;;;1.03;100.00
71195;BME280;58908;51.426;7.714;2023-01-24T10:22:18;102037.09;;;1.00;100.00
71195;BME280;58908;51.426;7.714;2023-01-24T10:24:51;102031.19;;;1.10;100.00
71195;BME280;58908;51.426;7.714;2023-01-24T10:27:20;102031.25;;;1.11;100.00
71195;BME280;58908;51.426;7.714;2023-01-24T10:29:52;102027.88;;;1.17;100.00
71195;BME280;58908;51.426;7.714;2023-01-24T10:32:25;102023.50;;;1.14;100.00
71195;BME280;58908;51.426;7.714;2023-01-24T10:34:53;102026.97;;;1.15;100.00
71195;BME280;58908;51.426;7.714;2023-01-24T10:37:22;102027.06;;;1.21;100.00
71195;BME280;58908;51.426;7.714;2023-01-24T10:39:49;102020.16;;;1.21;100.00
71195;BME280;58908;51.426;7.714;2023-01-24T10:42:18;102026.16;;;1.19;100.00
71195;BME280;58908;51.426;7.714;2023-01-24T10:44:44;102025.44;;;1.26;100.00
71195;BME280;58908;51.426;7.714;2023-01-24T10:47:15;102017.63;;;1.26;100.00
71195;BME280;58908;51.426;7.714;2023-01-24T10:49:49;102020.13;;;1.18;100.00
71195;BME280;58908;51.426;7.714;2023-01-24T10:52:18;102011.75;;;1.36;100.00
71195;BME280;58908;51.426;7.714;2023-01-24T10:54:46;102005.91;;;1.50;100.00
71195;BME280;58908;51.426;7.714;2023-01-24T10:57:19;102011.19;;;1.56;100.00
71195;BME280;58908;51.426;7.714;2023-01-24T10:59:46;102012.84;;;1.51;100.00
71195;BME280;58908;51.426;7.714;2023-01-24T11:02:20;102011.66;;;1.31;100.00
71195;BME280;58908;51.426;7.714;2023-01-24T11:04:51;102009.91;;;1.30;100.00
71195;BME280;58908;51.426;7.714;2023-01-24T11:07:25;102011.53;;;1.24;100.00
71195;BME280;58908;51.426;7.714;2023-01-24T11:09:52;102008.94;;;1.25;100.00
71195;BME280;58908;51.426;7.714;2023-01-24T11:12:18;102004.63;;;1.27;100.00
71195;BME280;58908;51.426;7.714;2023-01-24T11:14:46;102002.97;;;1.29;100.00
71195;BME280;58908;51.426;7.714;2023-01-24T11:17:27;102003.16;;;1.43;100.00
71195;BME280;58908;51.426;7.714;2023-01-24T11:19:58;102004.00;;;1.40;100.00
71195;BME280;58908;51.426;7.714;2023-01-24T11:22:27;102002.25;;;1.39;100.00
71195;BME280;58908;51.426;7.714;2023-01-24T11:25:00;102006.69;;;1.45;100.00
71195;BME280;58908;51.426;7.714;2023-01-24T11:27:26;102000.69;;;1.52;100.00
71195;BME280;58908;51.426;7.714;2023-01-24T11:30:03;101998.59;;;1.27;100.00
71195;BME280;58908;51.426;7.714;2023-01-24T11:32:31;101999.78;;;1.48;100.00
71195;BME280;58908;51.426;7.714;2023-01-24T11:35:03;101994.28;;;1.85;100.00
71195;BME280;58908;51.426;7.714;2023-01-24T11:37:32;101995.66;;;1.61;100.00
71195;BME280;58908;51.426;7.714;2023-01-24T11:40:02;101991.00;;;1.40;100.00
71195;BME280;58908;51.426;7.714;2023-01-24T11:42:38;101997.66;;;1.23;100.00
71195;BME280;58908;51.426;7.714;2023-01-24T11:45:18;101984.03;;;1.38;100.00
71195;BME280;58908;51.426;7.714;2023-01-24T11:47:47;101993.69;;;1.45;100.00
71195;BME280;58908;51.426;7.714;2023-01-24T11:50:25;101983.38;;;1.52;100.00
71195;BME280;58908;51.426;7.714;2023-01-24T11:52:58;101972.94;;;1.51;100.00
71195;BME280;58908;51.426;7.714;2023-01-24T11:55:33;101976.38;;;1.48;100.00
71195;BME280;58908;51.426;7.714;2023-01-24T11:58:08;101975.16;;;1.25;100.00
71195;BME280;58908;51.426;7.714;2023-01-24T12:00:39;101962.88;;;1.15;100.00
71195;BME280;58908;51.426;7.714;2023-01-24T12:03:14;101963.94;;;1.28;100.00
71195;BME280;58908;51.426;7.714;2023-01-24T12:05:50;101968.09;;;1.17;100.00
71195;BME280;58908;51.426;7.714;2023-01-24T12:08:23;101963.09;;;1.29;100.00
71195;BME280;58908;51.426;7.714;2023-01-24T12:10:58;101960.66;;;1.41;100.00
71195;BME280;58908;51.426;7.714;2023-01-24T12:13:29;101961.53;;;1.40;100.00
71195;BME280;58908;51.426;7.714;2023-01-24T12:16:02;101951.41;;;1.59;100.00
71195;BME280;58908;51.426;7.714;2023-01-24T12:21:28;101947.53;;;1.32;100.00
71195;BME280;58908;51.426;7.714;2023-01-24T12:23:54;101947.03;;;1.55;100.00
71195;BME280;58908;51.426;7.714;2023-01-24T12:26:22;101939.34;;;1.64;100.00
71195;BME280;58908;51.426;7.714;2023-01-24T12:28:53;101940.06;;;1.54;100.00
71195;BME280;58908;51.426;7.714;2023-01-24T12:31:24;101942.03;;;1.72;100.00
71195;BME280;58908;51.426;7.714;2023-01-24T12:33:53;101937.59;;;1.63;100.00
71195;BME280;58908;51.426;7.714;2023-01-24T12:36:24;101932.44;;;1.66;100.00
71195;BME280;58908;51.426;7.714;2023-01-24T12:38:56;101930.72;;;1.67;100.00
71195;BME280;58908;51.426;7.714;2023-01-24T12:41:27;101923.53;;;1.51;100.00
71195;BME280;58908;51.426;7.714;2023-01-24T12:43:57;101919.16;;;1.47;100.00
71195;BME280;58908;51.426;7.714;2023-01-24T12:46:25;101921.75;;;1.45;100.00
71195;BME280;58908;51.426;7.714;2023-01-24T12:48:53;101916.75;;;1.62;100.00
71195;BME280;58908;51.426;7.714;2023-01-24T12:51:24;101915.00;;;1.59;100.00
71195;BME280;58908;51.426;7.714;2023-01-24T12:53:56;101915.00;;;1.59;100.00
71195;BME280;58908;51.426;7.714;2023-01-24T12:56:25;101916.56;;;1.48;100.00
71195;BME280;58908;51.426;7.714;2023-01-24T12:58:53;101902.91;;;1.63;100.00
71195;BME280;58908;51.426;7.714;2023-01-24T13:01:27;101909.72;;;1.53;100.00